createdAt,value
2023-03-06T00:03:19.857Z,518.00
2023-03-06T00:07:19.857Z,517.00
2023-03-06T00:11:19.898Z,524.00
2023-03-06T00:15:19.988Z,516.00
2023-03-06T00:19:19.983Z,520.00
2023-03-06T00:23:20.101Z,519.00
2023-03-06T00:27:20.084Z,520.00
2023-03-06T00:31:20.195Z,517.00
2023-03-06T00:35:20.274Z,519.00
2023-03-06T00:39:20.282Z,523.00
2023-03-06T00:43:20.327Z,524.00
2023-03-06T00:47:20.404Z,521.00
2023-03-06T00:51:20.421Z,519.00
2023-03-06T00:55:20.509Z,522.00
2023-03-06T00:59:20.548Z,518.00
2023-03-06T01:03:20.562Z,523.00
2023-03-06T01:07:20.652Z,519.00
2023-03-06T01:11:20.660Z,516.00
2023-03-06T01:15:20.747Z,520.00
2023-03-06T01:19:20.833Z,519.00
2023-03-06T01:23:20.893Z,517.00
2023-03-06T01:27:20.896Z,517.00
2023-03-06T01:31:20.990Z,519.00
2023-03-06T01:35:21.128Z,524.00
2023-03-06T01:39:21.179Z,514.00
2023-03-06T01:43:21.278Z,520.00
2023-03-06T01:47:21.411Z,519.00
2023-03-06T01:51:21.498Z,525.00
2023-03-06T01:55:21.608Z,520.00
2023-03-06T01:59:21.745Z,523.00
2023-03-06T02:03:21.849Z,517.00
2023-03-06T02:07:21.916Z,521.00
2023-03-06T02:11:22.090Z,518.00
2023-03-06T02:15:22.190Z,529.00
2023-03-06T02:19:22.295Z,521.00
2023-03-06T02:23:22.402Z,522.00
2023-03-06T02:27:22.481Z,525.00
2023-03-06T02:31:22.579Z,524.00
2023-03-06T02:35:22.824Z,519.00
2023-03-06T02:39:22.796Z,517.00
2023-03-06T02:43:22.890Z,516.00
2023-03-06T02:47:22.985Z,517.00
2023-03-06T02:51:23.083Z,516.00
2023-03-06T02:55:23.173Z,518.00
2023-03-06T02:59:23.307Z,520.00
2023-03-06T03:03:23.422Z,518.00
2023-03-06T03:07:23.570Z,512.00
2023-03-06T03:11:23.653Z,515.00
2023-03-06T03:15:23.816Z,518.00
2023-03-06T03:19:23.924Z,522.00
2023-03-06T03:23:24.038Z,517.00
2023-03-06T03:27:24.145Z,525.00
2023-03-06T03:31:24.332Z,518.00
2023-03-06T03:35:24.450Z,518.00
2023-03-06T03:39:24.586Z,522.00
2023-03-06T03:43:24.692Z,523.00
2023-03-06T03:47:24.819Z,519.00
2023-03-06T03:51:24.987Z,520.00
2023-03-06T03:55:25.151Z,519.00
2023-03-06T03:59:25.250Z,523.00
2023-03-06T04:03:25.425Z,520.00
2023-03-06T04:07:25.545Z,518.00
2023-03-06T04:11:25.675Z,521.00
2023-03-06T04:15:25.811Z,520.00
2023-03-06T04:19:25.970Z,522.00
2023-03-06T04:23:26.103Z,520.00
2023-03-06T04:27:26.299Z,518.00
2023-03-06T04:31:26.469Z,518.00
2023-03-06T04:35:26.599Z,520.00
2023-03-06T04:39:26.784Z,519.00
2023-03-06T04:43:26.895Z,513.00
2023-03-06T04:47:27.035Z,517.00
2023-03-06T04:51:27.246Z,521.00
2023-03-06T04:55:27.335Z,521.00
2023-03-06T04:59:27.475Z,521.00
2023-03-06T05:03:27.667Z,515.00
2023-03-06T05:07:27.847Z,523.00
2023-03-06T05:11:28.017Z,519.00
2023-03-06T05:15:28.153Z,520.00
2023-03-06T05:19:28.343Z,513.00
2023-03-06T05:23:28.504Z,510.00
2023-03-06T05:27:28.689Z,513.00
2023-03-06T05:31:28.917Z,506.00
2023-03-06T05:35:29.068Z,507.00
2023-03-06T05:39:29.183Z,506.00
2023-03-06T05:43:29.383Z,507.00
2023-03-06T05:47:29.509Z,508.00
2023-03-06T05:51:29.754Z,509.00
2023-03-06T05:55:29.960Z,504.00
2023-03-06T05:59:30.078Z,508.00
2023-03-06T06:03:30.296Z,509.00
2023-03-06T06:07:30.393Z,506.00
2023-03-06T06:11:30.632Z,505.00
2023-03-06T06:15:30.850Z,506.00
2023-03-06T06:19:30.901Z,503.00
2023-03-06T06:23:31.071Z,502.00
2023-03-06T06:27:31.205Z,511.00
2023-03-06T06:31:31.420Z,508.00
2023-03-06T06:35:31.517Z,504.00
2023-03-06T06:39:31.857Z,538.00
2023-03-06T06:43:31.729Z,511.00
2023-03-06T06:47:31.989Z,518.00
2023-03-06T06:51:31.963Z,524.00
2023-03-06T06:55:32.095Z,536.00
2023-03-06T06:59:32.044Z,550.00
2023-03-06T07:03:32.383Z,562.00
2023-03-06T07:07:32.403Z,566.00
2023-03-06T07:11:32.371Z,574.00
2023-03-06T07:15:32.376Z,592.00
2023-03-06T07:19:31.872Z,597.00
2023-03-06T07:23:31.794Z,603.00
2023-03-06T07:27:31.933Z,627.00
2023-03-06T07:31:31.780Z,637.00
2023-03-06T07:35:32.001Z,630.00
2023-03-06T07:39:31.660Z,1086.00
2023-03-06T07:43:31.641Z,1030.00
2023-03-06T07:47:31.620Z,991.00
2023-03-06T07:51:31.573Z,1008.00
2023-03-06T07:55:31.661Z,1034.00
2023-03-06T07:59:31.865Z,1064.00
2023-03-06T08:03:32.016Z,1072.00
2023-03-06T08:07:32.144Z,1041.00
2023-03-06T08:11:32.291Z,1076.00
2023-03-06T08:15:32.433Z,1060.00
2023-03-06T08:19:32.587Z,1052.00
2023-03-06T08:23:32.768Z,1092.00
2023-03-06T08:27:32.865Z,1026.00
2023-03-06T08:31:33.491Z,624.00
2023-03-06T08:35:33.221Z,611.00
2023-03-06T08:39:33.427Z,583.00
2023-03-06T08:43:33.440Z,582.00
2023-03-06T08:47:33.977Z,569.00
2023-03-06T08:51:33.672Z,566.00
2023-03-06T08:55:33.977Z,597.00
2023-03-06T08:59:33.941Z,618.00
2023-03-06T09:03:33.784Z,620.00
2023-03-06T09:07:33.920Z,608.00
2023-03-06T09:11:33.808Z,635.00
2023-03-06T09:15:33.687Z,627.00
2023-03-06T09:19:33.650Z,631.00
2023-03-06T09:23:33.965Z,643.00
2023-03-06T09:27:33.970Z,533.00
2023-03-06T09:31:33.782Z,524.00
2023-03-06T09:35:33.543Z,500.00
2023-03-06T09:39:33.937Z,516.00
2023-03-06T09:43:33.518Z,511.00
2023-03-06T09:47:33.366Z,506.00
2023-03-06T09:51:33.418Z,514.00
2023-03-06T09:55:33.439Z,526.00
2023-03-06T09:59:33.491Z,545.00
2023-03-06T10:03:33.962Z,566.00
2023-03-06T10:07:33.827Z,570.00
2023-03-06T10:11:34.449Z,600.00
2023-03-06T10:15:34.528Z,611.00
2023-03-06T10:19:34.327Z,586.00
2023-03-06T10:23:34.542Z,553.00
2023-03-06T10:27:34.494Z,537.00
2023-03-06T10:31:35.003Z,535.00
2023-03-06T10:35:34.992Z,524.00
2023-03-06T10:39:34.826Z,570.00
2023-03-06T10:43:36.493Z,592.00
2023-03-06T10:47:35.017Z,616.00
2023-03-06T10:51:35.160Z,636.00
2023-03-06T10:55:35.190Z,742.00
2023-03-06T10:59:35.213Z,913.00
2023-03-06T11:03:35.256Z,948.00
2023-03-06T11:07:35.276Z,919.00
2023-03-06T11:11:43.360Z,931.00
2023-03-06T11:15:35.999Z,947.00
2023-03-06T11:19:35.296Z,968.00
2023-03-06T11:23:35.520Z,1001.00
2023-03-06T11:27:35.549Z,1052.00
2023-03-06T11:31:35.584Z,905.00
2023-03-06T11:35:35.839Z,1055.00
2023-03-06T11:39:35.864Z,1090.00
2023-03-06T11:43:36.146Z,1148.00
2023-03-06T11:47:37.032Z,1180.00
2023-03-06T11:51:36.347Z,1197.00
2023-03-06T11:55:36.434Z,1187.00
2023-03-06T11:59:37.080Z,1107.00
2023-03-06T12:03:36.736Z,1018.00
2023-03-06T12:07:36.771Z,952.00
2023-03-06T12:11:36.764Z,1014.00
2023-03-06T12:15:36.807Z,1021.00
2023-03-06T12:19:37.063Z,1015.00
2023-03-06T12:23:40.200Z,1020.00
2023-03-06T12:27:36.698Z,983.00
2023-03-06T12:31:36.703Z,923.00
2023-03-06T12:35:36.636Z,827.00
2023-03-06T12:39:36.564Z,829.00
2023-03-06T12:43:38.868Z,799.00
2023-03-06T12:47:36.494Z,768.00
2023-03-06T12:51:36.483Z,759.00
2023-03-06T12:55:36.448Z,675.00
2023-03-06T12:59:36.368Z,627.00
2023-03-06T13:03:36.399Z,561.00
2023-03-06T13:07:36.330Z,552.00
2023-03-06T13:11:36.292Z,566.00
2023-03-06T13:15:36.338Z,552.00
2023-03-06T13:19:36.196Z,598.00
2023-03-06T13:23:36.161Z,644.00
2023-03-06T13:27:36.142Z,670.00
2023-03-06T13:31:36.129Z,720.00
2023-03-06T13:35:36.086Z,762.00
2023-03-06T13:39:36.064Z,797.00
2023-03-06T13:43:36.061Z,817.00
2023-03-06T13:47:59.110Z,1086.00
2023-03-06T13:51:37.014Z,1006.00
2023-03-06T13:55:36.037Z,1017.00
2023-03-06T13:59:36.160Z,1049.00
2023-03-06T14:03:36.590Z,876.00
2023-03-06T14:07:36.442Z,760.00
2023-03-06T14:11:36.648Z,811.00
2023-03-06T14:15:36.662Z,774.00
2023-03-06T14:19:36.601Z,688.00
2023-03-06T14:23:36.640Z,738.00
2023-03-06T14:27:36.515Z,785.00
2023-03-06T14:31:36.517Z,799.00
2023-03-06T14:35:36.474Z,771.00
2023-03-06T14:39:36.386Z,807.00
2023-03-06T14:43:36.622Z,811.00
2023-03-06T14:47:36.637Z,816.00
2023-03-06T14:51:36.268Z,832.00
2023-03-06T14:55:36.299Z,821.00
2023-03-06T14:59:36.198Z,818.00
2023-03-06T15:03:36.192Z,815.00
2023-03-06T15:07:36.221Z,806.00
2023-03-06T15:11:36.378Z,789.00
2023-03-06T15:15:36.604Z,793.00
2023-03-06T15:19:36.359Z,758.00
2023-03-06T15:23:36.238Z,765.00
2023-03-06T15:27:36.196Z,749.00
2023-03-06T15:31:36.237Z,747.00
2023-03-06T15:35:37.934Z,726.00
2023-03-06T15:39:36.125Z,742.00
2023-03-06T15:43:36.254Z,730.00
2023-03-06T15:47:36.485Z,722.00
2023-03-06T15:51:36.418Z,722.00
2023-03-06T15:55:36.373Z,720.00
2023-03-06T15:59:36.393Z,706.00
2023-03-06T16:03:36.400Z,700.00
2023-03-06T16:07:36.255Z,693.00
2023-03-06T16:11:43.771Z,673.00
2023-03-06T16:15:37.208Z,677.00
2023-03-06T16:19:36.135Z,665.00
2023-03-06T16:23:36.121Z,665.00
2023-03-06T16:27:36.076Z,663.00
2023-03-06T16:31:36.010Z,663.00
2023-03-06T16:35:36.065Z,662.00
2023-03-06T16:39:36.237Z,660.00
2023-03-06T16:43:36.057Z,658.00
2023-03-06T16:47:36.060Z,657.00
2023-03-06T16:51:36.066Z,654.00
2023-03-06T16:55:36.086Z,655.00
2023-03-06T16:59:36.153Z,653.00
2023-03-06T17:03:36.193Z,651.00
2023-03-06T17:07:36.248Z,654.00
2023-03-06T17:11:36.680Z,650.00
2023-03-06T17:15:36.408Z,649.00
2023-03-06T17:19:36.425Z,646.00
2023-03-06T17:23:36.553Z,644.00
2023-03-06T17:27:36.653Z,643.00
2023-03-06T17:31:36.795Z,644.00
2023-03-06T17:35:36.887Z,641.00
2023-03-06T17:39:36.974Z,640.00
2023-03-06T17:43:37.122Z,637.00
2023-03-06T17:47:37.242Z,635.00
2023-03-06T17:51:37.374Z,638.00
2023-03-06T17:55:37.525Z,637.00
2023-03-06T17:59:37.691Z,636.00
2023-03-06T18:03:38.728Z,635.00
2023-03-06T18:07:38.047Z,632.00
2023-03-06T18:11:38.243Z,635.00
2023-03-06T18:15:38.458Z,638.00
2023-03-06T18:19:38.646Z,642.00
2023-03-06T18:23:38.883Z,641.00
2023-03-06T18:27:39.049Z,640.00
2023-03-06T18:31:39.337Z,639.00
2023-03-06T18:35:39.297Z,639.00
2023-03-06T18:39:39.206Z,639.00
2023-03-06T18:43:39.174Z,637.00
2023-03-06T18:47:39.158Z,684.00
2023-03-06T18:51:39.075Z,688.00
2023-03-06T18:55:39.022Z,664.00
2023-03-06T18:59:39.021Z,657.00
2023-03-06T19:03:38.942Z,657.00
2023-03-06T19:07:38.933Z,653.00
2023-03-06T19:11:39.051Z,651.00
2023-03-06T19:15:38.977Z,654.00
2023-03-06T19:19:38.997Z,650.00
2023-03-06T19:23:38.930Z,646.00
2023-03-06T19:27:38.869Z,649.00
2023-03-06T19:31:38.896Z,647.00
2023-03-06T19:35:38.827Z,647.00
2023-03-06T19:39:38.787Z,644.00
2023-03-06T19:43:38.779Z,646.00
2023-03-06T19:47:38.674Z,642.00
2023-03-06T19:51:38.691Z,644.00
2023-03-06T19:55:39.286Z,640.00
2023-03-06T19:59:38.925Z,647.00
2023-03-06T20:03:38.910Z,644.00
2023-03-06T20:07:39.039Z,644.00
2023-03-06T20:11:39.166Z,639.00
2023-03-06T20:15:39.262Z,639.00
2023-03-06T20:19:39.328Z,640.00
2023-03-06T20:23:39.444Z,638.00
2023-03-06T20:27:39.406Z,642.00
2023-03-06T20:31:39.480Z,640.00
2023-03-06T20:35:39.555Z,637.00
2023-03-06T20:39:39.508Z,639.00
2023-03-06T20:43:39.516Z,636.00
2023-03-06T20:47:39.485Z,635.00
2023-03-06T20:51:39.466Z,636.00
2023-03-06T20:55:39.450Z,633.00
2023-03-06T20:59:39.438Z,636.00
2023-03-06T21:03:39.459Z,634.00
2023-03-06T21:07:39.422Z,638.00
2023-03-06T21:11:39.407Z,635.00
2023-03-06T21:15:39.450Z,632.00
2023-03-06T21:19:39.411Z,629.00
2023-03-06T21:23:39.409Z,634.00
2023-03-06T21:27:39.484Z,631.00
2023-03-06T21:31:39.428Z,630.00
2023-03-06T21:35:39.434Z,633.00
2023-03-06T21:39:39.392Z,632.00
2023-03-06T21:43:39.378Z,628.00
2023-03-06T21:47:39.388Z,629.00
2023-03-06T21:51:39.380Z,627.00
2023-03-06T21:55:39.357Z,624.00
2023-03-06T21:59:39.438Z,624.00
2023-03-06T22:03:39.392Z,622.00
2023-03-06T22:07:39.392Z,624.00
2023-03-06T22:11:39.408Z,623.00
2023-03-06T22:15:39.431Z,621.00
2023-03-06T22:19:39.410Z,619.00
2023-03-06T22:23:39.427Z,618.00
2023-03-06T22:27:39.456Z,620.00
2023-03-06T22:31:40.415Z,615.00
2023-03-06T22:35:39.555Z,618.00
2023-03-06T22:39:39.596Z,614.00
2023-03-06T22:43:39.640Z,613.00
2023-03-06T22:47:39.667Z,613.00
2023-03-06T22:51:39.710Z,616.00
2023-03-06T22:55:39.798Z,619.00
2023-03-06T22:59:39.874Z,619.00
2023-03-06T23:03:39.899Z,617.00
2023-03-06T23:07:39.923Z,620.00
2023-03-06T23:11:40.051Z,621.00
2023-03-06T23:15:40.095Z,617.00
2023-03-06T23:19:40.105Z,615.00
2023-03-06T23:23:40.165Z,611.00
2023-03-06T23:27:40.248Z,614.00
2023-03-06T23:31:40.297Z,615.00
2023-03-06T23:35:40.415Z,612.00
2023-03-06T23:39:40.456Z,617.00
2023-03-06T23:43:40.867Z,614.00
2023-03-06T23:47:40.575Z,610.00
2023-03-06T23:51:40.709Z,614.00
2023-03-06T23:55:40.750Z,616.00
2023-03-06T23:59:40.804Z,613.00
